Darwin International Airport / RAAF Darwin

YPDN · 北領地, 澳大利亚

METAR YPDN · 達爾文國際機場

13 六月 09:30 LT
30m
罗盘
风向 的 风向 090° 達爾文國際機場 11/29
风: 2 kt, 1 beaufort

2 kt

1 kt
改变
0 ft 1.000 2.000 3.000 4.000 5.000
CAVOK
METAR YPDN 130000Z 09002KT CAVOK 26/18 Q1015

METAR 達爾文國際機場 - YPDN/DRW

達爾文國際機場是,澳大利亚中的大型机场。 该机场位于纬度-12,41500和经度130,87525。 该机场有2条跑道: 11/29 和 18/36. 本场的ICAO机场代码为YPDN。 该机场的IATA代码为DRW。 机场在Brisbane FIR中。

该航空气象观测是针对達爾文國際機場在2024年6月13日 09:30, 当地时间进行的。

机场观察

风向为090°,速度为2 kt。

天气为CAVOK。这意味着在5.000 ft或MSA(最低安全高度)以下(以较高者为准)以下没有云。这也意味着没有观测到积雨云或高耸的积云,可见度为10 km 或者更多或更高。此外,不会有雾,降雨或其他重要天气。

温度和风寒是26 °C。 露点为18 °C,相对湿度为61%。 海平面上的气压为1015 hPa (QNH)。

白天

今天,太阳从07:04升起,在18:28降落。 这适用于達爾文國際機場,世界夏令时可能有所不同。 当地时间与世界标准时间之间的时差为+9 小时 30 分钟。 夏令时目前正在进行中。

公司介绍

我们没有关于这个机场的公司信息。

体会

到Vliegles.nl去找飞行课程,跳伞和其他飞行体验。 浏览页面,了解達爾文國際機場附近所有可用的活动。 你也可以使用搜索功能来寻找你所在地附近的特定飞行课程、跳伞或其他飞行体验。

跑道

Id 标题 侧风 逆风 侧风 %
11/29 110°-290° 2 kt 34 %
18/36 180°-360° 2 kt 100 %

逆风成分最大的方向会被突出显示,并用于横风计算。 这并不一定意味着这个方向在使用。

温度 & 天气

温度 26 °C
露点 18 °C
相对湿度 61%
Kp-index 0 (0-9)

白天

日出
07:04
中午
12:46
日落
18:28 (8:28)

小工具

你想在你的网站上有一个关于達爾文國際機場的当前航空天气(METAR)的小部件吗?

显示HTML代码
报告变更